createdAt,value
2022-08-11T00:01:32.122Z,64.80
2022-08-11T00:04:02.446Z,64.70
2022-08-11T00:06:32.773Z,64.80
2022-08-11T00:09:01.678Z,64.80
2022-08-11T00:11:42.433Z,64.60
2022-08-11T00:14:19.773Z,64.30
2022-08-11T00:16:54.296Z,64.10
2022-08-11T00:20:14.462Z,64.10
2022-08-11T00:22:24.218Z,64.20
2022-08-11T00:24:54.694Z,64.20
2022-08-11T00:27:36.962Z,64.20
2022-08-11T00:30:06.075Z,64.10
2022-08-11T00:32:33.591Z,64.20
2022-08-11T00:35:52.416Z,64.80
2022-08-11T00:37:50.787Z,64.90
2022-08-11T00:40:36.605Z,64.70
2022-08-11T00:43:20.061Z,64.60
2022-08-11T00:46:12.596Z,64.70
2022-08-11T00:49:13.850Z,64.80
2022-08-11T00:52:06.416Z,64.90
2022-08-11T00:54:55.440Z,65.00
2022-08-11T00:57:55.896Z,65.00
2022-08-11T01:00:25.130Z,65.00
2022-08-11T01:03:13.881Z,65.50
2022-08-11T01:06:07.898Z,66.10
2022-08-11T01:09:07.137Z,66.50
2022-08-11T01:11:55.596Z,66.30
2022-08-11T01:15:00.485Z,66.80
2022-08-11T01:17:27.180Z,67.40
2022-08-11T01:20:46.720Z,66.90
2022-08-11T01:23:47.641Z,66.50
2022-08-11T01:26:51.382Z,66.50
2022-08-11T01:29:33.490Z,66.50
2022-08-11T01:32:37.943Z,66.30
2022-08-11T01:35:30.890Z,66.20
2022-08-11T01:38:19.364Z,66.10
2022-08-11T01:41:22.986Z,66.30
2022-08-11T01:44:44.009Z,66.40
2022-08-11T01:47:53.459Z,66.60
2022-08-11T01:50:42.441Z,66.90
2022-08-11T01:53:40.055Z,66.90
2022-08-11T01:56:21.951Z,66.70
2022-08-11T01:59:17.904Z,66.70
2022-08-11T02:02:43.461Z,67.00
2022-08-11T02:05:24.811Z,67.20
2022-08-11T02:08:18.936Z,67.40
2022-08-11T02:11:35.160Z,67.10
2022-08-11T02:14:31.614Z,66.90
2022-08-11T02:17:17.282Z,67.30
2022-08-11T02:20:12.045Z,67.20
2022-08-11T02:24:05.912Z,67.20
2022-08-11T02:26:20.269Z,67.10
2022-08-11T02:28:55.771Z,67.20
2022-08-11T02:32:24.343Z,67.10
2022-08-11T02:35:20.117Z,67.10
2022-08-11T02:38:16.803Z,67.20
2022-08-11T02:40:53.102Z,67.20
2022-08-11T02:43:32.010Z,67.30
2022-08-11T02:46:28.774Z,67.30
2022-08-11T02:49:34.689Z,67.30
2022-08-11T02:52:36.103Z,67.20
2022-08-11T02:55:56.644Z,67.40
2022-08-11T02:58:15.762Z,67.50
2022-08-11T03:01:11.487Z,67.60
2022-08-11T03:03:52.693Z,67.50
2022-08-11T03:06:35.934Z,67.60
2022-08-11T03:09:24.818Z,67.70
2022-08-11T03:12:35.502Z,67.80
2022-08-11T03:15:28.355Z,68.20
2022-08-11T03:18:03.940Z,68.60
2022-08-11T03:20:45.926Z,68.70
2022-08-11T03:23:24.297Z,68.60
2022-08-11T03:26:24.398Z,68.60
2022-08-11T03:29:18.297Z,68.70
2022-08-11T03:32:24.699Z,68.70
2022-08-11T03:34:54.558Z,68.70
2022-08-11T03:37:52.843Z,68.70
2022-08-11T03:40:38.081Z,68.80
2022-08-11T03:43:36.646Z,69.10
2022-08-11T03:46:29.442Z,69.10
2022-08-11T03:49:25.303Z,69.30
2022-08-11T03:51:55.738Z,69.10
2022-08-11T03:54:45.839Z,69.00
2022-08-11T03:57:15.721Z,69.10
2022-08-11T04:00:08.979Z,69.20
2022-08-11T04:02:50.322Z,69.20
2022-08-11T04:05:32.015Z,69.20
2022-08-11T04:08:04.519Z,69.30
2022-08-11T04:11:29.818Z,69.20
2022-08-11T04:14:42.653Z,69.20
2022-08-11T04:17:36.589Z,69.50
2022-08-11T04:20:28.195Z,69.60
2022-08-11T04:24:34.893Z,69.80
2022-08-11T04:26:34.326Z,70.10
2022-08-11T04:29:25.854Z,70.10
2022-08-11T04:32:15.878Z,70.00
2022-08-11T04:35:06.159Z,70.00
2022-08-11T04:38:16.014Z,70.20
2022-08-11T04:41:15.032Z,70.30
2022-08-11T04:44:02.401Z,70.30
2022-08-11T04:47:10.715Z,70.60
2022-08-11T04:50:23.035Z,70.70
2022-08-11T04:53:23.552Z,70.60
2022-08-11T04:56:24.053Z,70.60
2022-08-11T04:59:33.910Z,70.70
2022-08-11T05:02:38.072Z,70.60
2022-08-11T05:05:31.463Z,70.70
2022-08-11T05:08:35.343Z,70.90
2022-08-11T05:11:35.145Z,70.80
2022-08-11T05:14:29.295Z,70.50
2022-08-11T05:17:18.869Z,70.20
2022-08-11T05:20:07.607Z,70.00
2022-08-11T05:22:55.255Z,70.10
2022-08-11T05:26:43.052Z,70.10
2022-08-11T05:29:20.306Z,70.10
2022-08-11T05:32:15.476Z,69.80
2022-08-11T05:34:54.864Z,69.80
2022-08-11T05:37:30.447Z,70.00
2022-08-11T05:40:24.539Z,69.90
2022-08-11T05:43:20.981Z,69.80
2022-08-11T05:46:21.747Z,69.70
2022-08-11T05:49:08.852Z,69.50
2022-08-11T05:52:05.855Z,69.50
2022-08-11T05:55:00.214Z,69.30
2022-08-11T05:57:49.722Z,69.20
2022-08-11T06:00:19.414Z,69.50
2022-08-11T06:02:50.827Z,69.10
2022-08-11T06:05:19.477Z,69.10
2022-08-11T06:07:49.988Z,68.60
2022-08-11T06:10:35.011Z,68.70
2022-08-11T06:13:03.454Z,68.60
2022-08-11T06:15:32.300Z,68.40
2022-08-11T06:18:01.320Z,68.10
2022-08-11T06:20:32.738Z,67.90
2022-08-11T06:23:06.592Z,67.80
2022-08-11T06:25:35.861Z,67.50
2022-08-11T06:28:08.147Z,67.40
2022-08-11T06:30:42.803Z,67.10
2022-08-11T06:33:33.460Z,66.70
2022-08-11T06:36:23.599Z,66.60
2022-08-11T06:39:11.083Z,66.60
2022-08-11T06:41:52.331Z,66.20
2022-08-11T06:44:27.914Z,66.00
2022-08-11T06:47:00.982Z,65.90
2022-08-11T06:49:56.102Z,65.80
2022-08-11T06:52:46.428Z,65.80
2022-08-11T06:55:55.818Z,65.30
2022-08-11T06:58:44.499Z,65.20
2022-08-11T07:01:14.618Z,65.30
2022-08-11T07:03:46.695Z,65.30
2022-08-11T07:06:34.495Z,65.40
2022-08-11T07:10:14.610Z,65.00
2022-08-11T07:13:04.984Z,64.90
2022-08-11T07:16:09.034Z,64.80
2022-08-11T07:18:53.711Z,64.50
2022-08-11T07:22:02.782Z,64.40
2022-08-11T07:25:01.402Z,64.20
2022-08-11T07:27:54.972Z,64.20
2022-08-11T07:30:24.326Z,63.90
2022-08-11T07:32:58.017Z,64.00
2022-08-11T07:35:38.676Z,63.90
2022-08-11T07:38:22.648Z,63.70
2022-08-11T07:40:52.013Z,63.80
2022-08-11T07:43:19.386Z,63.70
2022-08-11T07:46:05.485Z,63.60
2022-08-11T07:48:52.890Z,63.70
2022-08-11T07:51:39.147Z,63.70
2022-08-11T07:54:15.345Z,63.50
2022-08-11T07:56:55.605Z,63.50
2022-08-11T08:00:04.207Z,63.40
2022-08-11T08:03:02.371Z,63.40
2022-08-11T08:05:48.353Z,63.60
2022-08-11T08:08:34.272Z,63.30
2022-08-11T08:11:25.930Z,63.00
2022-08-11T08:14:14.352Z,63.10
2022-08-11T08:17:00.494Z,62.90
2022-08-11T08:19:28.152Z,62.80
2022-08-11T08:21:55.678Z,62.60
2022-08-11T08:24:42.897Z,62.60
2022-08-11T08:27:13.885Z,62.40
2022-08-11T08:30:00.234Z,62.10
2022-08-11T08:32:27.960Z,61.80
2022-08-11T08:34:56.993Z,61.60
2022-08-11T08:37:46.118Z,61.50
2022-08-11T08:40:14.075Z,61.30
2022-08-11T08:42:51.496Z,61.40
2022-08-11T08:45:19.114Z,61.10
2022-08-11T08:47:53.326Z,60.90
2022-08-11T08:50:27.759Z,60.80
2022-08-11T08:53:05.730Z,60.40
2022-08-11T08:55:33.722Z,60.60
2022-08-11T08:58:01.100Z,60.20
2022-08-11T09:00:40.748Z,60.40
2022-08-11T09:03:35.998Z,60.20
2022-08-11T09:05:56.175Z,60.30
2022-08-11T09:08:24.203Z,60.30
2022-08-11T09:11:13.776Z,60.00
2022-08-11T09:13:44.270Z,59.60
2022-08-11T09:16:11.922Z,59.10
2022-08-11T09:18:41.451Z,58.60
2022-08-11T09:21:08.609Z,58.50
2022-08-11T09:24:15.942Z,58.30
2022-08-11T09:26:59.954Z,57.90
2022-08-11T09:29:28.937Z,57.00
2022-08-11T09:31:56.980Z,56.30
2022-08-11T09:34:26.243Z,55.80
2022-08-11T09:37:12.907Z,55.40
2022-08-11T09:40:00.580Z,54.90
2022-08-11T09:42:47.719Z,54.80
2022-08-11T09:45:16.526Z,54.90
2022-08-11T09:47:44.399Z,54.60
2022-08-11T09:50:11.995Z,55.10
2022-08-11T09:52:52.174Z,54.70
2022-08-11T09:55:27.516Z,54.60
2022-08-11T09:58:13.059Z,54.90
2022-08-11T10:01:02.113Z,54.10
2022-08-11T10:03:31.442Z,54.00
2022-08-11T10:06:34.499Z,54.20
2022-08-11T10:09:05.298Z,53.50
2022-08-11T10:11:34.845Z,53.40
2022-08-11T10:14:33.050Z,53.30
2022-08-11T10:17:07.008Z,53.00
2022-08-11T10:19:38.489Z,52.90
2022-08-11T10:22:27.732Z,52.90
2022-08-11T10:25:19.873Z,53.00
2022-08-11T10:28:33.118Z,52.50
2022-08-11T10:31:06.668Z,52.50
2022-08-11T10:33:57.685Z,52.40
2022-08-11T10:36:28.555Z,51.90
2022-08-11T10:38:57.912Z,51.40
2022-08-11T10:42:06.148Z,51.50
2022-08-11T10:44:38.097Z,51.50
2022-08-11T10:47:24.900Z,51.60
2022-08-11T10:50:12.070Z,51.90
2022-08-11T10:52:59.277Z,51.50
2022-08-11T10:55:45.497Z,52.00
2022-08-11T10:58:31.799Z,51.00
2022-08-11T11:01:00.725Z,51.60
2022-08-11T11:03:30.948Z,51.00
2022-08-11T11:06:28.375Z,51.00
2022-08-11T11:09:04.528Z,50.90
2022-08-11T11:11:55.939Z,50.90
2022-08-11T11:14:46.385Z,50.70
2022-08-11T11:17:26.372Z,50.40
2022-08-11T11:19:58.328Z,50.40
2022-08-11T11:22:40.839Z,50.40
2022-08-11T11:25:20.121Z,49.90
2022-08-11T11:28:16.241Z,49.90
2022-08-11T11:31:03.128Z,50.00
2022-08-11T11:33:35.619Z,50.10
2022-08-11T11:36:45.417Z,50.50
2022-08-11T11:39:12.902Z,49.90
2022-08-11T11:41:41.819Z,50.10
2022-08-11T11:44:12.721Z,50.10
2022-08-11T11:46:40.756Z,50.10
2022-08-11T11:49:16.729Z,50.30
2022-08-11T11:51:49.909Z,49.80
2022-08-11T11:54:19.623Z,50.10
2022-08-11T11:56:46.780Z,49.40
2022-08-11T11:59:33.326Z,49.10
2022-08-11T12:02:01.001Z,49.90
2022-08-11T12:04:43.009Z,49.90
2022-08-11T12:07:29.388Z,49.70
2022-08-11T12:09:58.312Z,49.20
2022-08-11T12:12:44.389Z,49.40
2022-08-11T12:15:12.664Z,49.00
2022-08-11T12:17:40.487Z,49.90
2022-08-11T12:20:31.933Z,49.20
2022-08-11T12:23:15.401Z,49.00
2022-08-11T12:26:26.014Z,49.50
2022-08-11T12:28:50.459Z,49.10
2022-08-11T12:31:17.499Z,49.00
2022-08-11T12:33:44.478Z,49.20
2022-08-11T12:36:16.325Z,49.30
2022-08-11T12:38:51.352Z,48.90
2022-08-11T12:41:39.376Z,49.10
2022-08-11T12:44:29.730Z,49.40
2022-08-11T12:47:01.260Z,48.70
2022-08-11T12:49:49.381Z,48.70
2022-08-11T12:52:26.272Z,49.40
2022-08-11T12:55:14.016Z,49.60
2022-08-11T12:58:05.466Z,48.70
2022-08-11T13:00:51.564Z,48.80
2022-08-11T13:03:40.967Z,48.90
2022-08-11T13:06:08.574Z,49.10
2022-08-11T13:08:40.658Z,49.00
2022-08-11T13:11:56.176Z,49.00
2022-08-11T13:14:16.192Z,49.20
2022-08-11T13:17:04.070Z,48.80
2022-08-11T13:19:31.498Z,49.00
2022-08-11T13:21:58.567Z,49.10
2022-08-11T13:24:25.640Z,48.50
2022-08-11T13:26:52.508Z,48.70
2022-08-11T13:29:25.003Z,48.90
2022-08-11T13:31:53.899Z,48.90
2022-08-11T13:34:22.885Z,48.50
2022-08-11T13:36:53.091Z,48.10
2022-08-11T13:39:25.893Z,48.40
2022-08-11T13:41:59.267Z,48.30
2022-08-11T13:44:28.229Z,48.60
2022-08-11T13:47:01.570Z,47.70
2022-08-11T13:49:31.039Z,48.00
2022-08-11T13:51:58.970Z,48.30
2022-08-11T13:54:28.796Z,48.70
2022-08-11T13:56:59.711Z,48.60
2022-08-11T13:59:29.548Z,48.30
2022-08-11T14:02:22.096Z,48.70
2022-08-11T14:05:01.469Z,47.90
2022-08-11T14:07:35.521Z,48.20
2022-08-11T14:10:04.511Z,48.00
2022-08-11T14:12:52.421Z,48.10
2022-08-11T14:15:33.076Z,47.70
2022-08-11T14:18:05.610Z,48.30
2022-08-11T14:20:53.826Z,48.20
2022-08-11T14:23:31.279Z,47.40
2022-08-11T14:26:17.061Z,47.70
2022-08-11T14:28:45.496Z,47.40
2022-08-11T14:31:15.018Z,47.60
2022-08-11T14:33:59.641Z,47.50
2022-08-11T14:36:31.476Z,47.70
2022-08-11T14:38:58.608Z,48.00
2022-08-11T14:42:11.229Z,47.30
2022-08-11T14:44:53.137Z,47.50
2022-08-11T14:47:24.500Z,47.70
2022-08-11T14:50:09.360Z,47.90
2022-08-11T14:52:39.136Z,47.30
2022-08-11T14:55:26.362Z,47.80
2022-08-11T14:57:55.494Z,47.20
2022-08-11T15:00:24.438Z,47.90
2022-08-11T15:03:12.427Z,47.40
2022-08-11T15:05:55.804Z,47.60
2022-08-11T15:08:51.693Z,47.60
2022-08-11T15:11:40.258Z,47.10
2022-08-11T15:14:08.778Z,47.50
2022-08-11T15:16:56.623Z,47.40
2022-08-11T15:19:24.976Z,47.60
2022-08-11T15:22:10.919Z,47.50
2022-08-11T15:24:38.276Z,47.40
2022-08-11T15:27:32.439Z,47.50
2022-08-11T15:30:32.149Z,48.30
2022-08-11T15:33:24.980Z,47.40
2022-08-11T15:36:13.075Z,47.50
2022-08-11T15:38:55.759Z,47.70
2022-08-11T15:41:58.593Z,47.00
2022-08-11T15:45:04.147Z,47.70
2022-08-11T15:47:38.233Z,48.20
2022-08-11T15:50:09.859Z,47.90
2022-08-11T15:52:46.104Z,49.10
2022-08-11T15:55:13.984Z,48.50
2022-08-11T15:58:00.374Z,48.00
2022-08-11T16:00:46.351Z,47.80
2022-08-11T16:04:05.589Z,47.80
2022-08-11T16:06:22.573Z,47.80
2022-08-11T16:08:52.279Z,48.40
2022-08-11T16:11:21.532Z,48.40
2022-08-11T16:14:08.324Z,48.30
2022-08-11T16:16:36.672Z,48.50
2022-08-11T16:19:05.183Z,48.70
2022-08-11T16:21:36.887Z,48.80
2022-08-11T16:24:07.521Z,48.40
2022-08-11T16:27:11.373Z,48.90
2022-08-11T16:29:26.818Z,49.10
2022-08-11T16:32:14.564Z,49.40
2022-08-11T16:35:06.074Z,49.60
2022-08-11T16:37:54.018Z,49.20
2022-08-11T16:40:22.660Z,49.30
2022-08-11T16:43:10.778Z,49.20
2022-08-11T16:45:58.969Z,49.40
2022-08-11T16:48:35.133Z,49.30
2022-08-11T16:51:04.462Z,49.50
2022-08-11T16:54:00.167Z,49.90
2022-08-11T16:56:26.476Z,49.40
2022-08-11T16:59:17.321Z,49.60
2022-08-11T17:02:08.333Z,49.30
2022-08-11T17:05:02.739Z,49.70
2022-08-11T17:07:49.065Z,49.90
2022-08-11T17:10:52.440Z,49.70
2022-08-11T17:13:29.687Z,50.00
2022-08-11T17:16:07.384Z,49.30
2022-08-11T17:18:57.005Z,49.50
2022-08-11T17:22:09.407Z,49.40
2022-08-11T17:24:40.310Z,49.60
2022-08-11T17:27:08.895Z,49.70
2022-08-11T17:29:53.557Z,49.90
2022-08-11T17:33:00.814Z,49.70
2022-08-11T17:35:39.245Z,50.00
2022-08-11T17:38:14.107Z,50.00
2022-08-11T17:41:05.429Z,50.40
2022-08-11T17:43:51.468Z,50.00
2022-08-11T17:46:38.079Z,50.00
2022-08-11T17:49:08.208Z,50.60
2022-08-11T17:51:55.682Z,50.30
2022-08-11T17:54:42.486Z,50.40
2022-08-11T17:57:30.624Z,50.60
2022-08-11T17:59:58.544Z,50.70
2022-08-11T18:02:55.988Z,51.00
2022-08-11T18:05:26.676Z,51.20
2022-08-11T18:08:17.580Z,51.40
2022-08-11T18:11:04.955Z,51.60
2022-08-11T18:13:58.140Z,51.70
2022-08-11T18:16:43.727Z,51.80
2022-08-11T18:19:30.645Z,51.90
2022-08-11T18:22:31.511Z,51.40
2022-08-11T18:25:24.515Z,52.00
2022-08-11T18:28:13.050Z,52.00
2022-08-11T18:31:04.392Z,52.50
2022-08-11T18:34:06.990Z,52.50
2022-08-11T18:37:27.216Z,52.60
2022-08-11T18:40:25.200Z,52.90
2022-08-11T18:43:13.477Z,53.20
2022-08-11T18:46:06.279Z,53.30
2022-08-11T18:48:54.975Z,53.40
2022-08-11T18:51:43.065Z,53.20
2022-08-11T18:54:30.271Z,53.10
2022-08-11T18:57:20.570Z,53.20
2022-08-11T19:00:08.752Z,53.00
2022-08-11T19:02:57.741Z,53.00
2022-08-11T19:06:06.003Z,53.10
2022-08-11T19:08:55.943Z,53.30
2022-08-11T19:11:43.942Z,53.50
2022-08-11T19:14:33.879Z,53.50
2022-08-11T19:17:43.498Z,53.50
2022-08-11T19:20:31.577Z,53.80
2022-08-11T19:23:18.231Z,53.80
2022-08-11T19:26:05.460Z,53.90
2022-08-11T19:28:53.191Z,54.00
2022-08-11T19:31:44.043Z,54.00
2022-08-11T19:34:34.608Z,54.10
2022-08-11T19:37:24.263Z,54.00
2022-08-11T19:40:12.805Z,54.10
2022-08-11T19:43:00.820Z,54.30
2022-08-11T19:45:52.176Z,54.30
2022-08-11T19:48:41.229Z,54.40
2022-08-11T19:51:28.630Z,54.70
2022-08-11T19:54:14.766Z,54.80
2022-08-11T19:57:01.795Z,55.00
2022-08-11T19:59:47.959Z,55.10
2022-08-11T20:02:33.528Z,55.20
2022-08-11T20:05:19.520Z,55.40
2022-08-11T20:08:06.752Z,55.20
2022-08-11T20:10:54.295Z,55.20
2022-08-11T20:13:43.566Z,55.20
2022-08-11T20:16:32.550Z,55.20
2022-08-11T20:19:20.047Z,55.50
2022-08-11T20:22:14.940Z,55.60
2022-08-11T20:25:03.520Z,55.70
2022-08-11T20:27:52.470Z,56.20
2022-08-11T20:30:41.380Z,56.40
2022-08-11T20:33:27.870Z,56.50
2022-08-11T20:36:13.510Z,56.60
2022-08-11T20:38:59.804Z,56.60
2022-08-11T20:41:58.175Z,56.70
2022-08-11T20:44:47.413Z,56.60
2022-08-11T20:47:59.697Z,57.00
2022-08-11T20:50:42.454Z,56.90
2022-08-11T20:53:36.052Z,57.20
2022-08-11T20:56:28.921Z,57.30
2022-08-11T20:59:21.637Z,57.60
2022-08-11T21:02:10.117Z,57.70
2022-08-11T21:04:57.682Z,57.90
2022-08-11T21:07:57.140Z,57.70
2022-08-11T21:13:58.665Z,57.50
2022-08-11T21:16:48.859Z,57.60
2022-08-11T21:20:06.876Z,57.70
2022-08-11T21:23:05.287Z,58.00
2022-08-11T21:25:59.146Z,58.40
2022-08-11T21:28:46.836Z,58.70
2022-08-11T21:31:34.324Z,58.80
2022-08-11T21:34:21.233Z,58.70
2022-08-11T21:37:08.946Z,58.70
2022-08-11T21:39:56.116Z,59.40
2022-08-11T21:42:42.613Z,59.70
2022-08-11T21:45:29.193Z,59.90
2022-08-11T21:48:16.045Z,59.70
2022-08-11T21:51:01.402Z,59.70
2022-08-11T21:53:47.676Z,59.70
2022-08-11T21:56:33.644Z,59.70
2022-08-11T21:59:20.124Z,59.70
2022-08-11T22:02:11.914Z,59.80
2022-08-11T22:04:59.093Z,60.00
2022-08-11T22:07:44.604Z,60.10
2022-08-11T22:10:42.112Z,60.10
2022-08-11T22:13:32.443Z,60.10
2022-08-11T22:16:18.406Z,60.00
2022-08-11T22:19:05.615Z,60.10
2022-08-11T22:22:01.845Z,60.20
2022-08-11T22:24:52.787Z,60.60
2022-08-11T22:27:39.561Z,60.90
2022-08-11T22:30:27.915Z,61.00
2022-08-11T22:33:16.412Z,61.00
2022-08-11T22:36:03.072Z,61.00
2022-08-11T22:38:51.273Z,60.90
2022-08-11T22:41:37.039Z,60.90
2022-08-11T22:44:23.018Z,60.90
2022-08-11T22:47:10.040Z,61.20
2022-08-11T22:50:00.136Z,61.50
2022-08-11T22:52:47.753Z,61.60
2022-08-11T22:55:34.324Z,61.70
2022-08-11T22:58:22.043Z,61.60
2022-08-11T23:01:08.288Z,61.60
2022-08-11T23:03:54.552Z,61.70
2022-08-11T23:06:40.851Z,63.50
2022-08-11T23:09:27.722Z,63.80
2022-08-11T23:12:13.786Z,63.50
2022-08-11T23:14:59.972Z,63.20
2022-08-11T23:17:46.389Z,63.20
2022-08-11T23:20:41.804Z,63.10
2022-08-11T23:23:40.689Z,63.30
2022-08-11T23:26:26.261Z,63.30
2022-08-11T23:29:14.721Z,63.20
2022-08-11T23:32:00.894Z,63.20
2022-08-11T23:35:03.333Z,63.30
2022-08-11T23:37:51.251Z,63.30
2022-08-11T23:40:36.868Z,63.30
2022-08-11T23:43:23.050Z,63.40
2022-08-11T23:46:08.582Z,63.40
2022-08-11T23:48:57.260Z,63.60
2022-08-11T23:51:43.908Z,63.60
2022-08-11T23:54:32.603Z,63.50
2022-08-11T23:57:21.390Z,63.40
